Time;durP1;ratioP1;P1;durP2;ratioP2;P2;SDS_P1;SDS_P2;PMS_P1;PMS_P2;Temp;Humidity;BMP_temperature;BMP_pressure;BME280_temperature;BME280_humidity;BME280_pressure;Samples;Min_cycle;Max_cycle;Signal;HPM_P1;HPM_P2
2023/07/30 00:02:26;;;;;;;4.78;1.87;;;;;;;27.40;46.11;99279.47;4483962;31;34720;-65
2023/07/30 00:04:54;;;;;;;5.00;2.20;;;;;;;27.41;46.22;99274.81;4483226;32;35476;-66
2023/07/30 00:07:22;;;;;;;7.90;2.00;;;;;;;27.41;46.14;99289.34;4483040;32;33283;-64
2023/07/30 00:09:49;;;;;;;4.15;1.90;;;;;;;27.39;46.20;99285.25;4468968;32;34484;-64
2023/07/30 00:12:17;;;;;;;3.67;2.00;;;;;;;27.39;46.23;99290.72;4483113;32;33844;-65
2023/07/30 00:14:44;;;;;;;3.53;1.98;;;;;;;27.36;46.19;99286.59;4483787;32;35033;-67
2023/07/30 00:17:12;;;;;;;4.28;2.00;;;;;;;27.33;46.05;99273.44;4485623;32;33855;-67
2023/07/30 00:19:40;;;;;;;3.95;2.10;;;;;;;27.33;46.04;99269.87;4485393;32;33557;-67
2023/07/30 00:22:07;;;;;;;4.03;2.00;;;;;;;27.32;46.11;99271.75;4485214;32;33798;-65
2023/07/30 00:24:35;;;;;;;4.28;1.95;;;;;;;27.32;46.04;99270.94;4485277;32;34818;-65
2023/07/30 00:27:02;;;;;;;4.05;1.95;;;;;;;27.31;45.96;99270.13;4485557;32;33603;-64
2023/07/30 00:29:31;;;;;;;5.70;2.37;;;;;;;27.32;46.02;99273.69;4485287;32;34948;-66
2023/07/30 00:31:59;;;;;;;3.62;1.77;;;;;;;27.31;45.99;99274.78;4485003;32;33695;-65
2023/07/30 00:34:26;;;;;;;4.85;2.45;;;;;;;27.28;45.98;99281.62;4485169;32;34175;-64
2023/07/30 00:36:54;;;;;;;4.35;1.85;;;;;;;27.28;45.89;99264.34;4485148;32;34384;-64
2023/07/30 00:39:21;;;;;;;3.78;2.17;;;;;;;27.24;45.59;99271.47;4485344;32;33754;-65
2023/07/30 00:41:50;;;;;;;4.03;1.90;;;;;;;27.22;45.42;99277.19;4484961;32;33971;-65
2023/07/30 00:44:18;;;;;;;2.87;1.77;;;;;;;27.20;45.35;99269.25;4485137;32;34754;-64
2023/07/30 00:46:45;;;;;;;3.60;2.08;;;;;;;27.18;45.36;99267.84;4488838;31;34270;-65
2023/07/30 00:49:13;;;;;;;4.37;2.33;;;;;;;27.17;45.27;99257.97;4499282;31;34330;-64
2023/07/30 00:51:40;;;;;;;3.70;2.03;;;;;;;27.12;45.35;99261.50;4499661;31;33488;-65
2023/07/30 00:54:08;;;;;;;5.35;1.92;;;;;;;27.10;45.52;99251.94;4486694;31;33952;-65
2023/07/30 00:56:36;;;;;;;3.67;2.20;;;;;;;27.08;45.51;99246.69;4486254;31;33640;-65
2023/07/30 00:59:03;;;;;;;4.15;2.10;;;;;;;27.06;45.52;99245.28;4499688;31;33606;-65
2023/07/30 01:01:31;;;;;;;5.32;1.92;;;;;;;27.04;45.57;99240.06;4490476;31;33982;-65
2023/07/30 01:03:59;;;;;;;5.25;2.20;;;;;;;27.00;45.68;99233.50;4483562;32;34775;-64
2023/07/30 01:06:26;;;;;;;4.53;2.10;;;;;;;27.00;45.72;99249.91;4483850;32;33557;-65
2023/07/30 01:08:54;;;;;;;6.00;2.40;;;;;;;26.99;45.79;99250.16;4484753;32;34289;-65
2023/07/30 01:11:21;;;;;;;6.05;2.22;;;;;;;26.99;45.84;99250.97;4483452;32;33904;-65
2023/07/30 01:13:49;;;;;;;4.28;1.85;;;;;;;26.98;45.87;99249.34;4483727;32;33834;-66
2023/07/30 01:16:17;;;;;;;5.15;2.25;;;;;;;26.95;45.88;99249.84;4470285;32;33455;-66
2023/07/30 01:18:45;;;;;;;4.15;2.25;;;;;;;26.95;45.86;99239.75;4483457;32;33811;-64
2023/07/30 01:21:12;;;;;;;4.62;2.20;;;;;;;26.95;45.91;99236.16;4484726;32;34092;-66
2023/07/30 01:23:40;;;;;;;4.18;2.10;;;;;;;26.94;45.95;99220.84;4484899;32;34026;-65
2023/07/30 01:26:09;;;;;;;4.43;2.17;;;;;;;26.93;45.89;99217.28;4484384;32;33528;-65
2023/07/30 01:28:39;;;;;;;3.75;1.95;;;;;;;26.95;45.94;99211.53;4483628;32;35319;-66
2023/07/30 01:31:06;;;;;;;3.92;2.00;;;;;;;26.87;46.08;99203.84;4470716;32;34667;-65
2023/07/30 01:33:34;;;;;;;4.03;2.10;;;;;;;26.83;46.21;99209.00;4470593;32;34591;-65
2023/07/30 01:38:49;;;;;;;3.40;1.85;;;;;;;26.87;46.21;99198.34;4472569;32;33831;-65
2023/07/30 01:41:16;;;;;;;3.62;1.87;;;;;;;26.94;46.08;99196.19;4470564;32;33507;-66
2023/07/30 01:43:44;;;;;;;5.87;2.00;;;;;;;26.97;46.04;99198.41;4483398;32;34470;-65
2023/07/30 01:46:11;;;;;;;3.60;2.12;;;;;;;27.00;46.01;99192.41;4484620;32;33573;-65
2023/07/30 01:48:39;;;;;;;3.97;2.17;;;;;;;27.01;45.96;99191.31;4484624;32;34684;-65
2023/07/30 01:51:06;;;;;;;4.93;2.08;;;;;;;27.04;45.88;99192.69;4484575;32;33711;-66
2023/07/30 01:53:34;;;;;;;3.40;1.98;;;;;;;27.05;45.79;99192.44;4484443;32;34099;-65
2023/07/30 01:56:02;;;;;;;4.72;2.03;;;;;;;27.07;45.83;99194.91;4484617;32;34373;-66
2023/07/30 01:58:29;;;;;;;2.70;1.85;;;;;;;27.07;45.78;99195.72;4483379;32;33854;-65
2023/07/30 02:00:57;;;;;;;3.50;2.03;;;;;;;27.07;45.78;99195.72;4489526;31;34016;-65
2023/07/30 02:03:25;;;;;;;4.05;2.05;;;;;;;27.08;45.82;99197.41;4500277;31;34887;-65
2023/07/30 02:05:53;;;;;;;5.80;2.28;;;;;;;27.08;45.83;99185.59;4500417;31;33523;-64
2023/07/30 02:08:20;;;;;;;3.65;2.00;;;;;;;27.10;45.81;99192.50;4498981;31;34831;-65
2023/07/30 02:10:57;;;;;;;4.85;2.20;;;;;;;27.09;45.78;99201.81;4500613;31;33784;-65
2023/07/30 02:13:25;;;;;;;4.25;2.20;;;;;;;27.10;45.76;99203.47;4500094;31;34215;-65
2023/07/30 02:15:53;;;;;;;3.55;2.22;;;;;;;27.10;45.74;99199.91;4500587;31;33508;-65
2023/07/30 02:18:21;;;;;;;4.75;2.35;;;;;;;27.09;45.71;99193.59;4500255;31;34032;-65
2023/07/30 02:20:52;;;;;;;3.00;1.95;;;;;;;27.09;45.58;99190.88;4499006;31;33362;-65
2023/07/30 02:23:20;;;;;;;4.35;2.30;;;;;;;27.09;45.55;99190.88;4500387;31;34152;-65
2023/07/30 02:25:48;;;;;;;2.83;1.92;;;;;;;27.10;45.47;99192.50;4498990;31;33463;-65
2023/07/30 02:28:16;;;;;;;4.20;1.95;;;;;;;27.09;45.39;99190.88;4500055;31;33834;-65
2023/07/30 02:30:43;;;;;;;3.00;1.92;;;;;;;27.09;45.40;99190.88;4500067;31;33993;-65
2023/07/30 02:33:11;;;;;;;3.17;1.98;;;;;;;27.10;45.36;99184.28;4500129;31;34093;-65
2023/07/30 02:35:39;;;;;;;4.00;2.10;;;;;;;27.09;45.30;99190.88;4500086;31;33635;-61
2023/07/30 02:38:06;;;;;;;3.85;2.22;;;;;;;27.10;45.27;99195.25;4499290;31;33070;-60
2023/07/30 02:40:34;;;;;;;4.57;2.20;;;;;;;27.11;45.29;99198.81;4500173;31;34097;-61
2023/07/30 02:43:02;;;;;;;3.72;2.03;;;;;;;27.10;45.29;99197.97;4499940;31;33740;-62
2023/07/30 02:45:30;;;;;;;5.62;2.17;;;;;;;27.11;45.26;99204.28;4500085;31;34526;-61
2023/07/30 02:47:58;;;;;;;4.55;2.00;;;;;;;27.11;45.25;99209.75;4500104;31;33627;-62
2023/07/30 02:50:25;;;;;;;3.12;1.70;;;;;;;27.10;45.19;99203.47;4499892;31;34591;-63
2023/07/30 02:52:53;;;;;;;3.83;2.28;;;;;;;27.10;45.17;99202.63;4499964;31;34236;-65
2023/07/30 02:55:20;;;;;;;4.22;2.10;;;;;;;27.09;45.12;99196.34;4499972;31;33541;-65
2023/07/30 02:57:48;;;;;;;3.60;2.03;;;;;;;27.09;45.09;99195.50;4499900;31;33930;-65
2023/07/30 03:00:15;;;;;;;3.65;2.00;;;;;;;27.10;45.10;99197.16;4499867;31;34779;-67
2023/07/30 03:02:44;;;;;;;3.80;1.73;;;;;;;27.09;45.08;99200.97;4500144;31;34434;-66
2023/07/30 03:05:12;;;;;;;3.10;1.90;;;;;;;27.09;45.15;99193.59;4500056;31;33651;-65
2023/07/30 03:07:39;;;;;;;3.17;1.95;;;;;;;27.09;45.17;99196.34;4499885;31;35217;-65
2023/07/30 03:10:07;;;;;;;7.03;2.20;;;;;;;27.08;45.13;99200.16;4499704;31;34499;-64
2023/07/30 03:12:34;;;;;;;4.05;1.95;;;;;;;27.09;45.19;99192.75;4499627;31;33681;-65
2023/07/30 03:15:02;;;;;;;4.35;2.08;;;;;;;27.09;45.23;99196.34;4499810;31;34100;-64
2023/07/30 03:17:30;;;;;;;4.25;1.80;;;;;;;27.08;45.20;99200.16;4499830;31;33881;-65
2023/07/30 03:19:58;;;;;;;3.62;2.03;;;;;;;27.08;45.23;99200.16;4499707;31;34484;-64
2023/07/30 03:22:25;;;;;;;4.40;2.17;;;;;;;27.09;45.31;99198.22;4499606;31;34078;-64
2023/07/30 03:24:53;;;;;;;3.08;1.80;;;;;;;27.08;45.31;99204.78;4499795;31;33461;-64
2023/07/30 03:27:21;;;;;;;3.62;1.90;;;;;;;27.08;45.30;99205.63;4499468;31;34699;-65
2023/07/30 03:29:48;;;;;;;3.33;1.87;;;;;;;27.08;45.24;99213.84;4499694;31;34016;-65
2023/07/30 03:32:16;;;;;;;3.15;2.00;;;;;;;27.00;45.47;99214.31;4499420;31;34016;-65
2023/07/30 03:34:43;;;;;;;2.90;1.75;;;;;;;26.95;45.60;99219.75;4499651;31;33387;-65
2023/07/30 03:37:11;;;;;;;3.45;2.10;;;;;;;26.92;45.59;99215.63;4499483;31;34760;-65
2023/07/30 03:39:39;;;;;;;6.57;2.10;;;;;;;26.92;45.63;99214.81;4499340;31;33967;-65
2023/07/30 03:42:06;;;;;;;3.00;1.90;;;;;;;26.90;45.69;99216.97;4499336;31;33741;-65
2023/07/30 03:44:35;;;;;;;3.87;2.10;;;;;;;26.90;45.70;99219.72;4499299;31;33642;-62
2023/07/30 03:47:03;;;;;;;4.35;1.80;;;;;;;26.88;45.64;99216.44;4499226;31;33679;-61
2023/07/30 03:49:30;;;;;;;4.10;1.48;;;;;;;26.88;45.66;99216.44;4500692;31;34529;-65
2023/07/30 03:51:58;;;;;;;4.93;1.80;;;;;;;26.88;45.62;99217.25;4501243;31;34818;-64
2023/07/30 03:54:26;;;;;;;4.85;1.95;;;;;;;26.86;45.58;99207.63;4501509;31;33128;-65
2023/07/30 03:56:53;;;;;;;4.68;1.80;;;;;;;26.86;45.60;99211.22;4501570;31;33892;-65
2023/07/30 03:59:21;;;;;;;5.35;2.20;;;;;;;26.86;45.59;99218.59;4501266;31;33916;-65
2023/07/30 04:01:49;;;;;;;3.28;1.62;;;;;;;26.85;45.63;99225.16;4490167;31;34571;-65
2023/07/30 04:04:16;;;;;;;3.28;1.62;;;;;;;26.85;45.63;99228.72;4471194;32;34263;-65
2023/07/30 04:06:44;;;;;;;3.12;1.83;;;;;;;26.85;45.62;99227.88;4485351;32;33887;-65
2023/07/30 04:09:12;;;;;;;3.92;1.92;;;;;;;26.84;45.64;99223.50;4483938;32;33508;-66
2023/07/30 04:11:39;;;;;;;3.90;1.90;;;;;;;26.83;45.65;99230.91;4485319;32;34116;-65
2023/07/30 04:14:08;;;;;;;3.97;1.95;;;;;;;26.83;45.63;99235.56;4485320;32;33616;-61
2023/07/30 04:16:36;;;;;;;3.92;2.10;;;;;;;26.82;45.69;99240.22;4485164;32;33574;-62
2023/07/30 04:19:04;;;;;;;4.35;1.85;;;;;;;26.83;45.66;99244.59;4485333;32;33727;-62
2023/07/30 04:21:32;;;;;;;3.35;1.90;;;;;;;26.83;45.63;99241.03;4485341;32;34866;-62
2023/07/30 04:24:01;;;;;;;3.97;1.90;;;;;;;26.82;45.66;99245.69;4485127;32;34814;-64
2023/07/30 04:26:28;;;;;;;4.00;2.00;;;;;;;26.82;45.65;99236.66;4485323;32;33857;-61
2023/07/30 04:28:56;;;;;;;4.00;2.10;;;;;;;26.89;45.52;99238.06;4483887;32;33527;-62
2023/07/30 04:31:23;;;;;;;3.90;2.15;;;;;;;26.95;45.34;99238.91;4485072;32;34170;-64
2023/07/30 04:33:51;;;;;;;3.45;1.83;;;;;;;26.97;45.23;99242.22;4485477;32;33992;-61
2023/07/30 04:36:19;;;;;;;4.78;2.15;;;;;;;26.99;45.21;99244.69;4485354;32;34634;-63
2023/07/30 04:38:47;;;;;;;4.40;2.28;;;;;;;27.01;45.16;99248.00;4483863;32;33273;-62
2023/07/30 04:41:15;;;;;;;4.10;2.03;;;;;;;27.02;45.19;99247.72;4485186;32;34091;-65
2023/07/30 04:43:43;;;;;;;2.62;1.80;;;;;;;27.03;45.16;99249.38;4485143;32;33224;-65
2023/07/30 04:46:10;;;;;;;4.47;1.90;;;;;;;27.04;45.12;99241.97;4485233;32;34677;-61
2023/07/30 04:48:38;;;;;;;9.30;2.37;;;;;;;27.04;45.09;99242.81;4485351;32;33982;-64
2023/07/30 04:51:06;;;;;;;4.95;2.08;;;;;;;27.05;45.07;99241.72;4485382;32;34425;-61
2023/07/30 04:53:34;;;;;;;5.25;2.47;;;;;;;27.05;45.10;99247.22;4484872;32;34284;-62
2023/07/30 04:56:01;;;;;;;5.93;2.30;;;;;;;27.07;45.22;99247.75;4485049;32;33813;-63
2023/07/30 04:58:38;;;;;;;4.93;2.58;;;;;;;27.07;45.22;99245.03;4487424;31;34555;-66
2023/07/30 05:01:08;;;;;;;3.50;2.00;;;;;;;27.09;45.30;99256.59;4489577;31;34860;-67
2023/07/30 05:03:36;;;;;;;3.67;2.10;;;;;;;27.08;45.19;99259.53;4499712;31;34366;-64
2023/07/30 05:06:04;;;;;;;3.55;2.17;;;;;;;27.09;45.21;99261.22;4499604;31;33191;-62
2023/07/30 05:08:31;;;;;;;4.90;2.17;;;;;;;27.09;45.17;99261.22;4500839;31;34772;-66
2023/07/30 05:10:59;;;;;;;4.18;2.42;;;;;;;27.10;45.32;99257.41;4500674;31;34016;-65
2023/07/30 05:13:26;;;;;;;4.20;2.15;;;;;;;27.09;45.45;99267.53;4500624;31;33397;-65
2023/07/30 05:15:54;;;;;;;3.83;2.15;;;;;;;27.10;45.38;99263.69;4500639;31;34726;-65
2023/07/30 05:18:22;;;;;;;4.95;2.40;;;;;;;27.10;45.38;99262.88;4500597;31;33874;-62
2023/07/30 05:20:49;;;;;;;4.45;2.25;;;;;;;27.09;45.30;99255.72;4500394;31;34263;-62
2023/07/30 05:23:17;;;;;;;3.53;1.90;;;;;;;27.10;45.29;99252.75;4500578;31;33465;-62
2023/07/30 05:25:45;;;;;;;4.60;2.22;;;;;;;27.10;45.49;99250.00;4500551;31;33459;-63
2023/07/30 05:28:12;;;;;;;7.60;2.53;;;;;;;27.10;45.31;99243.72;4500535;31;34761;-65
2023/07/30 05:30:40;;;;;;;7.30;2.42;;;;;;;27.11;45.41;99246.19;4499144;31;34531;-65
2023/07/30 05:33:07;;;;;;;4.62;2.12;;;;;;;27.10;45.38;99244.53;4490284;31;34221;-65
2023/07/30 05:35:35;;;;;;;4.97;2.25;;;;;;;27.09;45.43;99245.63;4484595;32;33538;-65
2023/07/30 05:38:03;;;;;;;6.70;2.45;;;;;;;27.10;45.39;99249.19;4484645;32;34187;-64
2023/07/30 05:40:30;;;;;;;4.50;2.42;;;;;;;27.10;45.38;99252.75;4484980;32;34146;-65
2023/07/30 05:42:58;;;;;;;4.45;2.35;;;;;;;27.11;45.35;99254.41;4483265;32;34295;-66
2023/07/30 05:45:25;;;;;;;4.60;2.30;;;;;;;27.11;45.29;99248.91;4484674;32;33225;-66
2023/07/30 05:47:53;;;;;;;5.80;2.47;;;;;;;27.11;45.25;99254.41;4483379;32;34019;-66
2023/07/30 05:50:21;;;;;;;5.30;2.65;;;;;;;27.12;45.40;99260.69;4484447;32;35002;-64
2023/07/30 05:52:48;;;;;;;3.47;2.15;;;;;;;27.12;45.52;99264.25;4484671;32;33351;-65
2023/07/30 05:55:16;;;;;;;4.12;2.30;;;;;;;27.12;45.50;99258.78;4484462;32;33495;-66
2023/07/30 05:57:43;;;;;;;4.45;2.45;;;;;;;27.13;45.58;99256.84;4484920;32;33951;-66
2023/07/30 06:00:11;;;;;;;3.87;2.33;;;;;;;27.13;45.57;99259.59;4484770;31;34830;-66
2023/07/30 06:02:39;;;;;;;4.55;2.25;;;;;;;27.13;45.56;99257.69;4500300;31;33621;-65
2023/07/30 06:05:07;;;;;;;4.62;2.20;;;;;;;27.14;45.65;99263.97;4500203;31;33634;-63
2023/07/30 06:07:35;;;;;;;4.90;2.25;;;;;;;27.14;45.62;99263.97;4500223;31;34167;-66
2023/07/30 06:10:03;;;;;;;4.43;2.40;;;;;;;27.14;45.59;99269.44;4500280;31;33871;-62
2023/07/30 06:12:30;;;;;;;4.35;2.28;;;;;;;27.14;45.60;99267.56;4499070;31;33725;-65
2023/07/30 06:14:58;;;;;;;6.47;2.20;;;;;;;27.13;45.71;99268.63;4499037;31;33624;-65
2023/07/30 06:17:25;;;;;;;4.47;2.62;;;;;;;27.13;45.61;99268.63;4500310;31;34059;-65
2023/07/30 06:19:53;;;;;;;4.78;2.28;;;;;;;27.13;45.70;99271.38;4499865;31;34320;-65
2023/07/30 06:22:21;;;;;;;3.72;2.28;;;;;;;27.12;45.61;99275.19;4500182;31;33380;-66
2023/07/30 06:24:49;;;;;;;4.32;2.28;;;;;;;27.13;45.65;99268.63;4500256;31;33888;-63
2023/07/30 06:27:34;;;;;;;5.28;2.55;;;;;;;27.14;45.76;99273.03;4500294;31;34029;-63
2023/07/30 06:32:25;;;;;;;4.07;2.37;;;;;;;27.74;44.97;99268.16;4523681;31;135393;-62
2023/07/30 06:34:53;;;;;;;6.43;2.85;;;;;;;27.74;44.97;99268.16;4511014;31;33111;-64
2023/07/30 06:37:20;;;;;;;4.85;2.60;;;;;;;27.08;46.22;99271.34;4510945;31;32920;-63
2023/07/30 06:39:48;;;;;;;6.10;3.22;;;;;;;27.02;46.33;99266.91;4512316;31;33887;-63
2023/07/30 06:42:16;;;;;;;10.35;5.32;;;;;;;27.01;46.48;99264.44;4510907;31;33604;-64
2023/07/30 06:44:43;;;;;;;12.85;5.90;;;;;;;26.99;46.54;99261.13;4512100;31;33920;-64
2023/07/30 06:47:10;;;;;;;13.80;6.47;;;;;;;26.99;46.68;99270.16;4511486;31;33792;-63
2023/07/30 06:49:38;;;;;;;16.62;7.90;;;;;;;26.99;46.82;99261.94;4497739;31;33644;-64
2023/07/30 06:52:06;;;;;;;15.75;7.55;;;;;;;26.97;46.90;99266.88;4510840;31;33202;-64
2023/07/30 06:54:33;;;;;;;15.30;7.50;;;;;;;27.00;46.94;99271.81;4510676;31;34138;-64
2023/07/30 06:57:05;;;;;;;10.93;6.00;;;;;;;27.01;47.05;99268.00;4512051;31;34490;-61
2023/07/30 06:59:33;;;;;;;12.00;6.30;;;;;;;27.03;47.02;99274.00;4510838;31;33787;-62
2023/07/30 07:02:01;;;;;;;12.52;5.50;;;;;;;27.03;47.07;99289.63;4510505;31;32709;-63
2023/07/30 07:04:28;;;;;;;15.18;6.15;;;;;;;27.03;47.10;99292.34;4512056;31;32954;-64
2023/07/30 07:06:56;;;;;;;9.98;4.62;;;;;;;27.04;47.18;99296.75;4497664;31;33451;-64
2023/07/30 07:09:23;;;;;;;13.15;4.47;;;;;;;27.04;47.23;99303.03;4502731;31;34715;-64
2023/07/30 07:11:51;;;;;;;8.82;4.72;;;;;;;27.06;47.21;99306.34;4495924;31;33799;-63
2023/07/30 07:14:19;;;;;;;10.77;4.20;;;;;;;27.06;47.24;99314.56;4494760;32;34012;-64
2023/07/30 07:16:48;;;;;;;13.27;4.22;;;;;;;27.05;47.10;99318.41;4481684;32;33887;-63
2023/07/30 07:19:16;;;;;;;;;;;;;;;27.06;47.21;99321.97;4496213;31;34067;-62
2023/07/30 07:21:43;;;;;;;10.55;3.65;;;;;;;27.14;46.93;99332.44;4481581;32;32934;-60
2023/07/30 07:24:11;;;;;;;7.05;3.45;;;;;;;27.06;47.11;99325.53;4495834;31;33899;-62
2023/07/30 07:26:39;;;;;;;5.80;3.20;;;;;;;27.04;47.27;99335.91;4494467;31;34571;-61
2023/07/30 07:29:06;;;;;;;6.85;3.10;;;;;;;27.04;47.39;99332.34;4495894;32;34056;-61
2023/07/30 07:31:33;;;;;;;6.95;3.47;;;;;;;27.05;47.40;99337.56;4481300;32;34440;-64
2023/07/30 07:34:02;;;;;;;5.67;3.00;;;;;;;27.04;47.23;99337.81;4494416;32;33497;-62
2023/07/30 07:36:30;;;;;;;5.47;3.10;;;;;;;27.05;47.20;99344.97;4494371;32;32636;-64
2023/07/30 07:38:58;;;;;;;5.25;2.65;;;;;;;27.05;47.26;99340.31;4495681;31;34572;-62
2023/07/30 07:41:26;;;;;;;6.60;3.37;;;;;;;27.03;47.43;99342.47;4495707;32;33440;-61
2023/07/30 07:43:53;;;;;;;5.93;2.60;;;;;;;27.00;47.55;99334.81;4484702;32;32992;-63
2023/07/30 07:46:21;;;;;;;4.35;2.55;;;;;;;26.98;47.55;99347.91;4485242;32;34736;-62
2023/07/30 07:48:49;;;;;;;5.68;2.70;;;;;;;26.95;47.58;99352.00;4483905;32;33986;-65
2023/07/30 07:51:17;;;;;;;6.07;2.50;;;;;;;26.94;47.66;99353.06;4484925;32;34333;-65
2023/07/30 07:53:44;;;;;;;4.95;2.70;;;;;;;26.92;47.79;99347.03;4483791;32;32223;-65
2023/07/30 07:56:12;;;;;;;5.47;2.60;;;;;;;26.92;47.78;99351.69;4484818;32;34666;-65
2023/07/30 07:58:40;;;;;;;5.43;2.80;;;;;;;26.90;47.81;99353.84;4484923;32;34146;-65
2023/07/30 08:01:07;;;;;;;4.43;2.35;;;;;;;26.89;47.90;99349.47;4484757;32;34423;-59
2023/07/30 08:03:35;;;;;;;4.57;2.37;;;;;;;26.88;48.02;99356.84;4484959;32;32972;-61
2023/07/30 08:06:02;;;;;;;4.07;2.30;;;;;;;26.87;48.08;99351.66;4483547;32;33930;-65
2023/07/30 08:08:30;;;;;;;4.65;2.20;;;;;;;26.87;48.16;99352.47;4484485;32;34087;-65
2023/07/30 08:10:58;;;;;;;7.07;2.80;;;;;;;26.87;48.13;99362.59;4484462;32;33722;-65
2023/07/30 08:13:25;;;;;;;4.62;2.60;;;;;;;26.87;48.14;99366.16;4479338;32;33411;-63
2023/07/30 08:15:53;;;;;;;4.03;2.58;;;;;;;26.89;48.23;99371.38;4484496;32;33819;-61
2023/07/30 08:18:20;;;;;;;4.22;2.47;;;;;;;26.87;48.33;99373.56;4476668;32;34027;-63
2023/07/30 08:20:49;;;;;;;6.35;2.90;;;;;;;26.95;48.24;99373.06;4476756;32;33796;-61
2023/07/30 08:23:17;;;;;;;7.30;2.53;;;;;;;27.01;48.20;99363.81;4484383;32;34051;-61
2023/07/30 08:25:45;;;;;;;4.87;2.92;;;;;;;27.06;48.18;99363.88;4484228;32;33682;-65
2023/07/30 08:28:12;;;;;;;5.18;2.60;;;;;;;27.08;48.05;99356.22;4484361;32;34076;-65
2023/07/30 08:30:40;;;;;;;6.87;2.87;;;;;;;27.10;48.05;99366.94;4470344;32;32445;-65
2023/07/30 08:33:07;;;;;;;5.28;2.90;;;;;;;27.12;47.97;99362.00;4483118;32;33408;-65
2023/07/30 08:35:35;;;;;;;6.72;2.50;;;;;;;27.14;47.79;99359.81;4484348;32;33391;-64
2023/07/30 08:38:02;;;;;;;6.90;3.05;;;;;;;27.14;47.63;99366.16;4484387;32;33716;-65
2023/07/30 08:40:31;;;;;;;5.53;2.90;;;;;;;27.14;47.72;99357.94;4484040;32;33387;-65
2023/07/30 08:42:59;;;;;;;10.35;2.67;;;;;;;27.15;47.77;99347.81;4476789;32;33082;-65
2023/07/30 08:45:26;;;;;;;7.95;3.35;;;;;;;27.16;47.72;99358.50;4474150;32;33714;-65
2023/07/30 08:47:54;;;;;;;5.40;2.90;;;;;;;27.18;48.14;99350.81;4469159;32;34800;-65
2023/07/30 08:50:22;;;;;;;6.25;2.53;;;;;;;27.18;48.06;99364.53;4469007;32;34343;-62
2023/07/30 08:52:49;;;;;;;4.95;2.83;;;;;;;27.20;48.03;99356.06;4467882;32;33363;-66
2023/07/30 08:55:17;;;;;;;9.75;3.35;;;;;;;27.20;47.98;99356.06;4466933;32;34657;-62
2023/07/30 08:57:44;;;;;;;6.82;2.47;;;;;;;27.21;47.91;99350.31;4481016;32;33620;-65
2023/07/30 09:00:12;;;;;;;6.18;2.80;;;;;;;27.22;47.88;99353.87;4483483;32;33294;-66
2023/07/30 09:02:47;;;;;;;7.57;3.25;;;;;;;27.22;48.01;99356.62;4470623;32;33302;-65
2023/07/30 09:05:15;;;;;;;8.65;3.28;;;;;;;27.25;48.08;99358.00;4483471;32;33429;-66
2023/07/30 09:07:43;;;;;;;10.27;4.20;;;;;;;27.24;48.11;99348.97;4470615;32;32778;-65
2023/07/30 09:10:11;;;;;;;13.07;4.47;;;;;;;27.25;48.31;99353.34;4484853;32;33628;-66
2023/07/30 09:12:39;;;;;;;11.82;3.90;;;;;;;27.27;48.45;99362.13;4483425;32;33735;-65
2023/07/30 09:15:07;;;;;;;10.98;4.00;;;;;;;27.28;48.55;99349.25;4484590;32;33850;-66
2023/07/30 09:17:35;;;;;;;9.10;3.78;;;;;;;27.29;48.94;99356.41;4484594;32;34120;-65
2023/07/30 09:20:03;;;;;;;8.23;3.17;;;;;;;27.29;48.83;99361.88;4483429;32;33812;-65
2023/07/30 09:22:41;;;;;;;10.45;3.58;;;;;;;27.29;48.83;99362.72;4484654;32;33344;-65
2023/07/30 09:25:09;;;;;;;9.20;3.70;;;;;;;27.29;48.67;99359.97;4483435;32;33899;-65
2023/07/30 09:27:37;;;;;;;10.23;3.75;;;;;;;27.30;48.60;99358.88;4484509;32;33883;-65
2023/07/30 09:30:05;;;;;;;10.95;3.53;;;;;;;27.30;48.56;99358.06;4484486;32;33718;-66
2023/07/30 09:32:34;;;;;;;15.87;3.77;;;;;;;27.30;48.75;99356.13;4484218;32;34217;-66
2023/07/30 09:35:06;;;;;;;16.20;3.97;;;;;;;27.32;48.92;99358.59;4484354;32;33851;-65
2023/07/30 09:37:40;;;;;;;14.38;3.17;;;;;;;27.32;49.01;99355.84;4483292;32;34738;-62
2023/07/30 09:40:09;;;;;;;6.03;3.15;;;;;;;27.33;49.21;99354.78;4484297;32;33897;-65
2023/07/30 09:42:39;;;;;;;14.63;3.92;;;;;;;27.33;49.58;99354.78;4484428;32;33831;-65
2023/07/30 09:45:09;;;;;;;11.38;4.03;;;;;;;27.34;49.66;99349.03;4477079;32;34007;-63
2023/07/30 09:47:37;;;;;;;15.25;3.85;;;;;;;27.36;49.71;99351.50;4467420;32;34775;-62
2023/07/30 09:50:05;;;;;;;8.32;3.40;;;;;;;27.37;49.68;99356.75;4480802;32;33695;-65
2023/07/30 09:52:33;;;;;;;8.98;3.83;;;;;;;27.38;49.99;99354.81;4481940;32;33295;-63
2023/07/30 09:55:00;;;;;;;10.68;3.50;;;;;;;27.38;50.02;99355.66;4483652;32;33938;-62
2023/07/30 09:57:28;;;;;;;9.13;3.55;;;;;;;27.37;49.87;99354.00;4483879;32;33553;-61
2023/07/30 09:59:56;;;;;;;12.30;3.85;;;;;;;27.38;49.78;99354.81;4483800;32;33325;-61
2023/07/30 10:02:24;;;;;;;9.57;3.30;;;;;;;27.39;49.95;99349.06;4483550;32;33457;-63
2023/07/30 10:04:52;;;;;;;8.90;2.92;;;;;;;27.39;49.80;99354.56;4482889;32;33863;-61
2023/07/30 10:07:21;;;;;;;7.55;3.28;;;;;;;27.39;49.88;99356.47;4469832;32;34964;-63
2023/07/30 10:09:50;;;;;;;6.37;3.55;;;;;;;27.40;50.22;99363.59;4467979;32;33603;-62
2023/07/30 10:12:21;;;;;;;7.73;2.80;;;;;;;27.41;50.20;99363.31;4453460;32;32886;-63
2023/07/30 10:14:49;;;;;;;7.72;3.20;;;;;;;27.41;50.31;99357.03;4466809;32;33071;-63
2023/07/30 10:17:16;;;;;;;6.22;3.47;;;;;;;27.43;50.38;99361.16;4453542;32;34014;-62
2023/07/30 10:19:48;;;;;;;9.35;3.22;;;;;;;27.44;50.32;99361.97;4467000;32;34135;-64
2023/07/30 10:22:19;;;;;;;7.18;3.08;;;;;;;27.43;50.25;99360.34;4467328;32;34146;-62
2023/07/30 10:25:07;;;;;;;6.37;3.22;;;;;;;27.45;50.45;99360.87;4483438;32;33568;-61
2023/07/30 10:27:39;;;;;;;8.18;3.17;;;;;;;27.48;50.56;99365.03;4483049;32;34834;-62
2023/07/30 10:30:14;;;;;;;6.90;3.42;;;;;;;27.45;50.59;99355.41;4481819;32;34445;-63
2023/07/30 10:32:59;;;;;;;5.57;3.33;;;;;;;27.44;50.54;99351.84;4483633;32;33353;-62
2023/07/30 10:35:43;;;;;;;6.62;3.03;;;;;;;27.45;50.34;99345.28;4469409;32;34662;-62
2023/07/30 10:38:14;;;;;;;6.57;3.00;;;;;;;27.44;50.25;99340.88;4466524;32;34665;-66
2023/07/30 10:40:43;;;;;;;6.53;3.12;;;;;;;27.43;50.40;99341.97;4469193;32;34534;-62
2023/07/30 10:43:17;;;;;;;8.73;3.17;;;;;;;27.44;50.28;99340.88;4460221;32;32332;-65
2023/07/30 10:45:49;;;;;;;5.40;3.10;;;;;;;27.44;49.96;99332.66;4483165;32;33743;-64
2023/07/30 10:48:17;;;;;;;5.03;3.00;;;;;;;27.44;49.94;99337.31;4471017;32;33699;-62
2023/07/30 10:50:48;;;;;;;8.43;3.20;;;;;;;27.44;49.93;99340.88;4466388;32;33790;-64
2023/07/30 10:53:18;;;;;;;6.43;2.70;;;;;;;27.44;49.98;99335.41;4465676;32;34128;-62
2023/07/30 10:55:46;;;;;;;6.30;2.90;;;;;;;27.45;49.95;99347.19;4470916;32;34489;-62
2023/07/30 10:58:14;;;;;;;5.25;2.72;;;;;;;27.44;50.07;99343.63;4480160;32;34007;-67
2023/07/30 11:00:41;;;;;;;5.07;2.78;;;;;;;27.46;50.14;99349.66;4482950;32;34461;-65
2023/07/30 11:03:09;;;;;;;4.95;3.08;;;;;;;27.46;50.16;99343.34;4483018;32;33233;-61
2023/07/30 11:05:40;;;;;;;4.95;2.95;;;;;;;27.47;50.14;99336.81;4481577;32;33373;-62
2023/07/30 11:08:07;;;;;;;4.95;3.10;;;;;;;27.47;50.19;99342.28;4482727;32;33658;-62
2023/07/30 11:11:01;;;;;;;4.93;3.03;;;;;;;27.47;50.24;99339.53;4482740;32;33718;-62
2023/07/30 11:13:29;;;;;;;6.47;3.12;;;;;;;27.51;49.99;99337.91;4480227;31;33240;-64
2023/07/30 11:15:56;;;;;;;6.55;3.35;;;;;;;27.50;50.22;99338.19;4482974;32;34024;-66
2023/07/30 11:18:24;;;;;;;4.93;2.83;;;;;;;27.49;50.34;99347.50;4482990;32;33604;-65
2023/07/30 11:20:53;;;;;;;6.90;2.90;;;;;;;27.48;50.22;99354.06;4483606;32;33920;-67
2023/07/30 11:23:21;;;;;;;4.50;2.60;;;;;;;27.48;50.15;99354.06;4483880;32;33041;-66
2023/07/30 11:25:51;;;;;;;6.28;3.12;;;;;;;27.49;50.12;99347.50;4484841;32;34551;-67
2023/07/30 11:28:32;;;;;;;7.57;2.95;;;;;;;27.49;50.11;99342.00;4483084;32;33996;-64
2023/07/30 11:31:06;;;;;;;5.62;2.75;;;;;;;27.50;50.08;99338.19;4467647;32;34010;-66
2023/07/30 11:33:34;;;;;;;8.20;3.65;;;;;;;27.48;50.22;99346.66;4478705;32;33400;-64
2023/07/30 11:36:02;;;;;;;6.53;3.40;;;;;;;27.48;50.39;99348.59;4483243;32;34557;-63
2023/07/30 11:38:30;;;;;;;4.85;3.30;;;;;;;27.48;50.28;99352.16;4483663;32;33639;-65
2023/07/30 11:40:57;;;;;;;6.28;3.25;;;;;;;27.46;50.14;99352.41;4472164;32;34852;-65
2023/07/30 11:43:25;;;;;;;5.75;3.08;;;;;;;27.46;50.12;99354.31;4480163;32;33243;-67